Itapitanga, Brazil
Current Conditions -  °F | °C
As of 3:00 AM on Monday 22 Dec 2014 (Local Time) from SBIL Reporting Station
Haze Haze  
Wind Chill: 73°   Ceiling: Unl
Heat Index: 73°   Visibility: 3mi
Dew Point: 72°   Wind: 5mph
Humidity: 94%   Direction: 270°W
Pressure: 29.91"   Gusts: NA
Location:  14.42°S, 39.56°W
Report Text: SBIL 220600Z 27004KT 5000 BR SCT010 SCT030 23/22 Q1013
Loading
Personal Weather Stations






























Interactive Weather Map New forecast layout! Learn more

10-Day Weather Forecast

Advertisements
Track Severe Weather on mobile